createdAt,value
2024-05-09T00:01:47.227Z,9.01
2024-05-09T00:03:59.636Z,8.97
2024-05-09T00:06:12.226Z,8.95
2024-05-09T00:08:24.664Z,8.90
2024-05-09T00:10:39.140Z,8.86
2024-05-09T00:12:52.551Z,8.82
2024-05-09T00:15:05.683Z,8.79
2024-05-09T00:17:18.293Z,8.78
2024-05-09T00:19:30.804Z,8.75
2024-05-09T00:21:43.869Z,8.71
2024-05-09T00:23:56.256Z,8.70
2024-05-09T00:26:08.776Z,8.67
2024-05-09T00:28:21.265Z,8.65
2024-05-09T00:30:36.230Z,8.63
2024-05-09T00:32:50.037Z,8.58
2024-05-09T00:35:02.884Z,8.57
2024-05-09T00:37:16.127Z,8.55
2024-05-09T00:39:28.522Z,8.53
2024-05-09T00:41:41.078Z,8.51
2024-05-09T00:43:53.500Z,8.49
2024-05-09T00:46:07.014Z,8.46
2024-05-09T00:48:21.395Z,8.43
2024-05-09T00:50:37.143Z,8.39
2024-05-09T00:52:50.573Z,8.34
2024-05-09T00:55:03.040Z,8.31
2024-05-09T00:57:17.258Z,8.28
2024-05-09T00:59:31.746Z,8.24
2024-05-09T01:01:46.030Z,8.19
2024-05-09T01:03:59.004Z,8.13
2024-05-09T01:06:11.869Z,8.09
2024-05-09T01:08:24.581Z,8.06
2024-05-09T01:10:37.739Z,8.00
2024-05-09T01:12:50.081Z,7.95
2024-05-09T01:15:02.540Z,7.89
2024-05-09T01:17:15.117Z,7.83
2024-05-09T01:19:29.491Z,7.77
2024-05-09T01:21:43.482Z,7.70
2024-05-09T01:23:55.879Z,7.64
2024-05-09T01:26:08.304Z,7.59
2024-05-09T01:28:20.712Z,7.54
2024-05-09T01:30:35.826Z,7.52
2024-05-09T01:32:50.255Z,7.47
2024-05-09T01:35:02.883Z,7.42
2024-05-09T01:37:15.404Z,7.39
2024-05-09T01:39:27.812Z,7.37
2024-05-09T01:41:40.183Z,7.34
2024-05-09T01:43:52.766Z,7.28
2024-05-09T01:46:05.220Z,7.24
2024-05-09T01:48:17.898Z,7.19
2024-05-09T01:50:38.111Z,7.15
2024-05-09T01:52:53.767Z,7.05
2024-05-09T01:55:07.103Z,6.96
2024-05-09T01:57:19.666Z,6.91
2024-05-09T01:59:32.165Z,6.88
2024-05-09T02:01:56.344Z,6.85
2024-05-09T02:04:10.610Z,6.76
2024-05-09T02:06:23.256Z,6.62
2024-05-09T02:08:35.844Z,6.51
2024-05-09T02:10:49.505Z,6.47
2024-05-09T02:13:02.594Z,6.43
2024-05-09T02:15:15.924Z,6.42
2024-05-09T02:17:28.512Z,6.42
2024-05-09T02:19:41.115Z,6.43
2024-05-09T02:21:53.568Z,6.42
2024-05-09T02:24:08.720Z,6.37
2024-05-09T02:26:21.236Z,6.36
2024-05-09T02:28:33.738Z,6.36
2024-05-09T02:30:46.165Z,6.33
2024-05-09T02:32:59.386Z,6.32
2024-05-09T02:35:11.890Z,6.28
2024-05-09T02:37:24.250Z,6.25
2024-05-09T02:39:36.610Z,6.20
2024-05-09T02:41:49.005Z,6.17
2024-05-09T02:44:01.383Z,6.16
2024-05-09T02:46:13.766Z,6.17
2024-05-09T02:48:26.332Z,6.17
2024-05-09T02:50:42.072Z,6.15
2024-05-09T02:52:54.730Z,6.12
2024-05-09T02:55:07.253Z,6.10
2024-05-09T02:57:19.653Z,6.09
2024-05-09T02:59:32.068Z,6.08
2024-05-09T03:01:44.896Z,6.07
2024-05-09T03:03:57.596Z,6.06
2024-05-09T03:06:10.186Z,6.04
2024-05-09T03:08:22.679Z,6.01
2024-05-09T03:10:37.429Z,5.99
2024-05-09T03:12:51.294Z,5.93
2024-05-09T03:15:04.056Z,5.90
2024-05-09T03:17:16.538Z,5.85
2024-05-09T03:19:29.165Z,5.80
2024-05-09T03:21:41.644Z,5.78
2024-05-09T03:23:54.049Z,5.75
2024-05-09T03:26:13.680Z,5.74
2024-05-09T03:28:26.046Z,5.73
2024-05-09T03:30:42.081Z,5.71
2024-05-09T03:32:55.918Z,5.68
2024-05-09T03:35:08.467Z,5.66
2024-05-09T03:37:20.901Z,5.68
2024-05-09T03:39:33.616Z,5.68
2024-05-09T03:41:45.976Z,5.68
2024-05-09T03:43:58.511Z,5.67
2024-05-09T03:46:10.977Z,5.65
2024-05-09T03:48:23.474Z,5.64
2024-05-09T03:50:37.081Z,5.63
2024-05-09T03:52:49.871Z,5.63
2024-05-09T03:55:02.280Z,5.65
2024-05-09T03:57:14.816Z,5.67
2024-05-09T03:59:27.427Z,5.70
2024-05-09T04:01:40.050Z,5.74
2024-05-09T04:03:52.757Z,5.79
2024-05-09T04:06:05.722Z,5.81
2024-05-09T04:08:18.188Z,5.87
2024-05-09T04:10:33.775Z,5.92
2024-05-09T04:12:47.324Z,5.98
2024-05-09T04:14:59.802Z,6.07
2024-05-09T04:17:12.490Z,6.16
2024-05-09T04:19:25.099Z,6.27
2024-05-09T04:21:37.551Z,6.37
2024-05-09T04:23:50.054Z,6.46
2024-05-09T04:26:04.268Z,6.54
2024-05-09T04:28:16.726Z,6.63
2024-05-09T04:30:36.768Z,6.73
2024-05-09T04:32:52.306Z,6.82
2024-05-09T04:35:04.987Z,6.95
2024-05-09T04:37:17.474Z,7.07
2024-05-09T04:39:30.004Z,7.20
2024-05-09T04:41:42.412Z,7.33
2024-05-09T04:43:55.266Z,7.47
2024-05-09T04:46:07.700Z,7.60
2024-05-09T04:48:20.332Z,7.74
2024-05-09T04:50:37.043Z,7.88
2024-05-09T04:52:51.545Z,8.00
2024-05-09T04:55:04.314Z,8.11
2024-05-09T04:57:16.687Z,8.23
2024-05-09T04:59:29.129Z,8.36
2024-05-09T05:01:41.531Z,8.48
2024-05-09T05:03:55.852Z,8.61
2024-05-09T05:06:08.588Z,8.76
2024-05-09T05:08:20.979Z,8.93
2024-05-09T05:10:36.361Z,9.08
2024-05-09T05:13:08.054Z,9.26
2024-05-09T05:15:20.459Z,9.38
2024-05-09T05:17:33.202Z,9.51
2024-05-09T05:19:46.019Z,9.64
2024-05-09T05:21:58.552Z,9.77
2024-05-09T05:24:10.931Z,9.89
2024-05-09T05:26:23.496Z,10.01
2024-05-09T05:28:35.902Z,10.13
2024-05-09T05:30:48.312Z,10.23
2024-05-09T05:33:01.085Z,10.35
2024-05-09T05:35:13.803Z,10.46
2024-05-09T05:37:26.313Z,10.59
2024-05-09T05:39:38.675Z,10.76
2024-05-09T05:41:51.000Z,10.99
2024-05-09T05:44:03.545Z,11.17
2024-05-09T05:46:16.023Z,11.32
2024-05-09T05:48:28.934Z,11.49
2024-05-09T05:50:42.353Z,11.58
2024-05-09T05:52:54.905Z,11.62
2024-05-09T05:55:07.324Z,11.71
2024-05-09T05:57:19.701Z,11.90
2024-05-09T05:59:32.200Z,12.09
2024-05-09T06:01:44.737Z,12.25
2024-05-09T06:03:57.312Z,12.41
2024-05-09T06:06:09.758Z,12.60
2024-05-09T06:08:22.286Z,12.80
2024-05-09T06:10:38.887Z,12.97
2024-05-09T06:12:53.856Z,13.09
2024-05-09T06:15:06.914Z,13.21
2024-05-09T06:17:19.394Z,13.36
2024-05-09T06:19:32.151Z,13.47
2024-05-09T06:21:44.651Z,13.49
2024-05-09T06:23:57.009Z,13.64
2024-05-09T06:26:09.502Z,13.72
2024-05-09T06:28:21.963Z,13.79
2024-05-09T06:30:40.009Z,13.98
2024-05-09T06:32:54.358Z,14.21
2024-05-09T06:35:07.149Z,14.46
2024-05-09T06:37:19.657Z,14.62
2024-05-09T06:39:32.003Z,14.77
2024-05-09T06:41:44.465Z,14.95
2024-05-09T06:43:57.049Z,15.07
2024-05-09T06:46:09.436Z,15.13
2024-05-09T06:48:22.514Z,15.24
2024-05-09T06:50:38.080Z,15.33
2024-05-09T06:52:51.958Z,15.44
2024-05-09T06:55:04.658Z,15.62
2024-05-09T06:57:17.109Z,15.80
2024-05-09T06:59:29.724Z,15.90
2024-05-09T07:01:42.565Z,15.92
2024-05-09T07:03:55.195Z,15.94
2024-05-09T07:06:08.135Z,16.17
2024-05-09T07:08:20.772Z,16.44
2024-05-09T07:10:36.336Z,16.68
2024-05-09T07:12:49.413Z,16.87
2024-05-09T07:15:01.993Z,17.00
2024-05-09T07:17:14.622Z,17.03
2024-05-09T07:19:27.348Z,17.12
2024-05-09T07:21:39.805Z,17.29
2024-05-09T07:23:52.363Z,17.45
2024-05-09T07:26:04.882Z,17.53
2024-05-09T07:28:19.574Z,17.78
2024-05-09T07:30:34.457Z,18.02
2024-05-09T07:32:48.315Z,18.19
2024-05-09T07:35:01.645Z,18.43
2024-05-09T07:37:14.238Z,18.55
2024-05-09T07:39:26.674Z,18.63
2024-05-09T07:41:39.224Z,18.79
2024-05-09T07:43:51.668Z,18.96
2024-05-09T07:47:04.400Z,19.11
2024-05-09T07:50:34.592Z,19.20
2024-05-09T07:53:39.679Z,19.41
2024-05-09T07:55:57.181Z,19.58
2024-05-09T07:58:09.804Z,19.75
2024-05-09T08:00:29.682Z,19.93
2024-05-09T08:02:44.125Z,20.09
2024-05-09T08:04:56.690Z,20.10
2024-05-09T08:07:09.454Z,20.11
2024-05-09T08:09:22.040Z,20.23
2024-05-09T08:11:34.638Z,20.50
2024-05-09T08:13:47.117Z,20.61
2024-05-09T08:15:59.607Z,20.70
2024-05-09T08:18:12.314Z,20.82
2024-05-09T08:20:31.050Z,20.89
2024-05-09T08:22:47.424Z,21.07
2024-05-09T08:24:59.718Z,21.33
2024-05-09T08:27:12.414Z,21.60
2024-05-09T08:29:24.902Z,21.79
2024-05-09T08:31:38.898Z,22.04
2024-05-09T08:33:52.260Z,22.31
2024-05-09T08:36:05.003Z,22.45
2024-05-09T08:38:17.396Z,22.86
2024-05-09T08:40:35.322Z,23.15
2024-05-09T08:42:55.105Z,23.22
2024-05-09T08:45:08.133Z,23.26
2024-05-09T08:47:20.630Z,23.41
2024-05-09T08:49:35.986Z,23.53
2024-05-09T08:51:49.607Z,23.64
2024-05-09T08:54:02.125Z,23.81
2024-05-09T08:56:16.877Z,23.96
2024-05-09T08:58:33.277Z,24.18
2024-05-09T09:00:47.625Z,24.40
2024-05-09T09:03:02.358Z,24.55
2024-05-09T09:05:17.063Z,24.75
2024-05-09T09:07:31.790Z,24.74
2024-05-09T09:09:45.539Z,24.97
2024-05-09T09:11:58.140Z,25.14
2024-05-09T09:14:10.625Z,25.17
2024-05-09T09:16:36.323Z,25.34
2024-05-09T09:18:49.603Z,25.47
2024-05-09T09:21:02.910Z,25.72
2024-05-09T09:23:15.559Z,26.00
2024-05-09T09:25:28.053Z,26.04
2024-05-09T09:27:40.555Z,25.97
2024-05-09T09:29:52.959Z,25.99
2024-05-09T09:32:07.185Z,26.02
2024-05-09T09:34:19.794Z,26.23
2024-05-09T09:36:35.774Z,26.37
2024-05-09T09:38:48.235Z,26.48
2024-05-09T09:41:05.131Z,26.60
2024-05-09T09:43:22.239Z,26.81
2024-05-09T09:45:36.236Z,26.98
2024-05-09T09:47:51.304Z,26.82
2024-05-09T09:50:09.546Z,26.71
2024-05-09T09:52:26.479Z,27.05
2024-05-09T09:54:39.492Z,27.30
2024-05-09T09:56:52.010Z,27.63
2024-05-09T09:59:07.058Z,27.71
2024-05-09T10:01:19.573Z,27.74
2024-05-09T10:03:32.546Z,27.93
2024-05-09T10:05:47.326Z,28.24
2024-05-09T10:08:04.671Z,28.20
2024-05-09T10:10:31.492Z,28.22
2024-05-09T10:12:58.952Z,28.20
2024-05-09T10:15:11.583Z,28.22
2024-05-09T10:17:24.054Z,28.29
2024-05-09T10:19:36.768Z,28.43
2024-05-09T10:21:49.530Z,28.80
2024-05-09T10:24:03.628Z,29.22
2024-05-09T10:26:16.000Z,29.46
2024-05-09T10:28:29.214Z,29.65
2024-05-09T10:30:43.067Z,29.63
2024-05-09T10:32:56.521Z,29.77
2024-05-09T10:35:14.922Z,29.89
2024-05-09T10:37:30.439Z,29.98
2024-05-09T10:39:43.094Z,29.83
2024-05-09T10:41:55.524Z,29.62
2024-05-09T10:44:18.290Z,29.49
2024-05-09T10:46:30.944Z,29.25
2024-05-09T10:48:44.168Z,28.93
2024-05-09T10:50:57.060Z,28.53
2024-05-09T10:53:09.388Z,28.06
2024-05-09T10:55:22.073Z,27.81
2024-05-09T10:57:38.494Z,27.04
2024-05-09T10:59:50.929Z,26.60
2024-05-09T11:02:04.782Z,26.84
2024-05-09T11:04:17.585Z,27.31
2024-05-09T11:06:30.589Z,27.64
2024-05-09T11:08:44.140Z,28.00
2024-05-09T11:10:56.920Z,28.27
2024-05-09T11:13:09.478Z,28.46
2024-05-09T11:15:21.961Z,28.88
2024-05-09T11:17:37.776Z,29.14
2024-05-09T11:19:50.350Z,29.13
2024-05-09T11:22:03.403Z,29.42
2024-05-09T11:24:16.306Z,29.75
2024-05-09T11:26:31.705Z,30.28
2024-05-09T11:28:44.786Z,30.73
2024-05-09T11:31:08.822Z,30.81
2024-05-09T11:33:21.894Z,30.72
2024-05-09T11:35:34.295Z,30.69
2024-05-09T11:37:46.946Z,30.74
2024-05-09T11:39:59.421Z,31.18
2024-05-09T11:42:11.994Z,31.50
2024-05-09T11:44:24.503Z,31.72
2024-05-09T11:46:36.941Z,31.65
2024-05-09T11:48:49.719Z,31.60
2024-05-09T11:51:02.112Z,31.53
2024-05-09T11:53:14.542Z,31.61
2024-05-09T11:55:28.054Z,31.77
2024-05-09T11:57:41.010Z,32.09
2024-05-09T11:59:53.399Z,32.10
2024-05-09T12:02:06.313Z,31.89
2024-05-09T12:04:19.049Z,32.05
2024-05-09T12:06:31.806Z,31.57
2024-05-09T12:08:44.267Z,31.23
2024-05-09T12:10:57.277Z,30.80
2024-05-09T12:13:10.098Z,30.28
2024-05-09T12:15:22.580Z,29.31
2024-05-09T12:17:35.169Z,28.34
2024-05-09T12:19:47.640Z,27.75
2024-05-09T12:22:00.259Z,27.27
2024-05-09T12:24:15.199Z,26.83
2024-05-09T12:26:29.404Z,26.65
2024-05-09T12:28:42.809Z,26.69
2024-05-09T12:30:55.371Z,26.81
2024-05-09T12:33:09.274Z,26.75
2024-05-09T12:35:22.131Z,26.47
2024-05-09T12:37:34.611Z,26.50
2024-05-09T12:39:46.912Z,26.39
2024-05-09T12:41:59.277Z,25.99
2024-05-09T12:44:11.702Z,25.67
2024-05-09T12:46:24.164Z,25.69
2024-05-09T12:48:36.799Z,26.28
2024-05-09T12:50:49.602Z,27.26
2024-05-09T12:53:03.484Z,28.31
2024-05-09T12:55:16.886Z,29.15
2024-05-09T12:57:29.577Z,29.44
2024-05-09T12:59:42.325Z,29.13
2024-05-09T13:01:56.545Z,29.17
2024-05-09T13:04:09.991Z,29.16
2024-05-09T13:06:22.477Z,28.76
2024-05-09T13:08:34.913Z,28.63
2024-05-09T13:10:47.865Z,28.87
2024-05-09T13:13:01.635Z,29.40
2024-05-09T13:15:14.705Z,29.72
2024-05-09T13:17:27.624Z,29.79
2024-05-09T13:19:40.068Z,29.70
2024-05-09T13:21:52.561Z,29.28
2024-05-09T13:24:05.300Z,28.97
2024-05-09T13:26:17.854Z,28.69
2024-05-09T13:28:31.940Z,28.43
2024-05-09T13:30:44.404Z,28.27
2024-05-09T13:32:56.838Z,28.19
2024-05-09T13:35:09.316Z,28.25
2024-05-09T13:37:21.802Z,28.50
2024-05-09T13:39:34.890Z,28.79
2024-05-09T13:41:47.289Z,28.76
2024-05-09T13:43:59.674Z,28.61
2024-05-09T13:46:12.350Z,28.42
2024-05-09T13:48:25.449Z,27.87
2024-05-09T13:50:38.839Z,27.80
2024-05-09T13:52:51.213Z,27.67
2024-05-09T13:55:03.617Z,27.56
2024-05-09T13:57:16.496Z,27.58
2024-05-09T13:59:28.920Z,27.41
2024-05-09T14:01:41.474Z,27.49
2024-05-09T14:03:54.120Z,27.66
2024-05-09T14:06:09.418Z,27.47
2024-05-09T14:08:23.924Z,27.62
2024-05-09T14:10:43.039Z,27.67
2024-05-09T14:12:55.693Z,27.28
2024-05-09T14:15:08.324Z,26.96
2024-05-09T14:17:20.999Z,27.04
2024-05-09T14:19:33.446Z,27.06
2024-05-09T14:21:45.811Z,26.98
2024-05-09T14:24:00.853Z,26.99
2024-05-09T14:26:13.875Z,27.09
2024-05-09T14:28:27.785Z,26.98
2024-05-09T14:30:40.888Z,26.83
2024-05-09T14:32:53.566Z,26.78
2024-05-09T14:35:06.326Z,26.64
2024-05-09T14:37:18.917Z,26.33
2024-05-09T14:39:31.419Z,26.07
2024-05-09T14:41:43.811Z,25.97
2024-05-09T14:43:56.202Z,25.65
2024-05-09T14:46:08.832Z,25.38
2024-05-09T14:48:21.696Z,25.23
2024-05-09T14:50:38.154Z,25.15
2024-05-09T14:52:52.376Z,25.16
2024-05-09T14:55:05.072Z,25.13
2024-05-09T14:57:17.588Z,25.18
2024-05-09T14:59:30.046Z,25.24
2024-05-09T15:01:42.694Z,25.17
2024-05-09T15:03:56.670Z,25.07
2024-05-09T15:06:09.397Z,25.03
2024-05-09T15:08:21.987Z,24.95
2024-05-09T15:10:36.502Z,24.81
2024-05-09T15:12:50.162Z,24.66
2024-05-09T15:15:03.036Z,24.61
2024-05-09T15:17:16.471Z,24.54
2024-05-09T15:19:30.767Z,24.58
2024-05-09T15:21:43.285Z,24.62
2024-05-09T15:23:55.718Z,24.53
2024-05-09T15:26:08.246Z,24.31
2024-05-09T15:28:20.800Z,24.05
2024-05-09T15:30:34.633Z,23.92
2024-05-09T15:32:47.638Z,23.67
2024-05-09T15:35:00.143Z,23.52
2024-05-09T15:37:13.313Z,23.47
2024-05-09T15:39:28.006Z,23.50
2024-05-09T15:41:40.398Z,23.50
2024-05-09T15:43:52.873Z,23.36
2024-05-09T15:46:06.141Z,23.29
2024-05-09T15:48:19.108Z,23.18
2024-05-09T15:50:37.483Z,23.12
2024-05-09T15:52:52.991Z,23.03
2024-05-09T15:55:06.347Z,22.94
2024-05-09T15:57:19.165Z,22.91
2024-05-09T15:59:31.658Z,22.82
2024-05-09T16:01:44.237Z,22.73
2024-05-09T16:03:56.884Z,22.63
2024-05-09T16:06:09.402Z,22.52
2024-05-09T16:08:21.879Z,22.38
2024-05-09T16:10:35.336Z,22.23
2024-05-09T16:12:48.373Z,22.08
2024-05-09T16:15:00.827Z,22.08
2024-05-09T16:17:13.763Z,22.06
2024-05-09T16:19:26.355Z,21.95
2024-05-09T16:21:38.799Z,21.74
2024-05-09T16:23:51.152Z,21.59
2024-05-09T16:26:03.688Z,21.56
2024-05-09T16:28:16.325Z,21.46
2024-05-09T16:30:34.707Z,21.37
2024-05-09T16:32:48.481Z,21.25
2024-05-09T16:35:00.962Z,21.09
2024-05-09T16:37:13.984Z,21.04
2024-05-09T16:39:26.399Z,20.97
2024-05-09T16:41:38.813Z,20.97
2024-05-09T16:43:51.405Z,20.98
2024-05-09T16:46:05.379Z,20.92
2024-05-09T16:48:17.904Z,20.80
2024-05-09T16:50:33.816Z,20.63
2024-05-09T16:52:47.878Z,20.47
2024-05-09T16:55:00.376Z,20.44
2024-05-09T16:57:13.058Z,20.34
2024-05-09T16:59:25.519Z,20.23
2024-05-09T17:01:38.046Z,20.11
2024-05-09T17:03:50.643Z,19.97
2024-05-09T17:06:03.361Z,19.80
2024-05-09T17:08:17.663Z,19.69
2024-05-09T17:10:33.628Z,19.64
2024-05-09T17:12:47.750Z,19.50
2024-05-09T17:15:00.208Z,19.34
2024-05-09T17:17:12.792Z,19.24
2024-05-09T17:19:25.530Z,19.17
2024-05-09T17:21:38.302Z,19.14
2024-05-09T17:23:54.893Z,19.09
2024-05-09T17:26:07.394Z,18.99
2024-05-09T17:28:20.059Z,18.89
2024-05-09T17:30:36.823Z,18.81
2024-05-09T17:32:51.169Z,18.68
2024-05-09T17:35:04.185Z,18.58
2024-05-09T17:37:17.285Z,18.44
2024-05-09T17:39:29.749Z,18.37
2024-05-09T17:41:43.362Z,18.30
2024-05-09T17:43:55.724Z,18.18
2024-05-09T17:46:08.228Z,18.07
2024-05-09T17:48:21.531Z,17.99
2024-05-09T17:50:36.531Z,17.89
2024-05-09T17:52:52.679Z,17.81
2024-05-09T17:55:07.128Z,17.73
2024-05-09T17:57:19.567Z,17.65
2024-05-09T17:59:31.982Z,17.53
2024-05-09T18:01:44.513Z,17.39
2024-05-09T18:03:57.253Z,17.29
2024-05-09T18:06:09.866Z,17.20
2024-05-09T18:08:22.246Z,17.12
2024-05-09T18:10:39.115Z,17.03
2024-05-09T18:12:52.623Z,16.90
2024-05-09T18:15:05.431Z,16.83
2024-05-09T18:17:19.056Z,16.69
2024-05-09T18:19:31.610Z,16.61
2024-05-09T18:21:44.422Z,16.53
2024-05-09T18:23:58.771Z,16.47
2024-05-09T18:26:12.475Z,16.38
2024-05-09T18:28:25.052Z,16.28
2024-05-09T18:30:39.155Z,16.16
2024-05-09T18:32:51.856Z,16.03
2024-05-09T18:35:04.545Z,15.88
2024-05-09T18:37:17.109Z,15.77
2024-05-09T18:39:29.599Z,15.66
2024-05-09T18:41:43.090Z,15.59
2024-05-09T18:43:55.641Z,15.51
2024-05-09T18:46:08.185Z,15.42
2024-05-09T18:48:21.709Z,15.33
2024-05-09T18:50:38.718Z,15.27
2024-05-09T18:52:53.103Z,15.16
2024-05-09T18:55:05.919Z,15.07
2024-05-09T18:57:18.387Z,14.96
2024-05-09T18:59:30.775Z,14.85
2024-05-09T19:01:43.242Z,14.76
2024-05-09T19:03:55.937Z,14.66
2024-05-09T19:06:08.389Z,14.55
2024-05-09T19:08:20.678Z,14.44
2024-05-09T19:10:35.095Z,14.33
2024-05-09T19:12:48.577Z,14.22
2024-05-09T19:15:01.058Z,14.12
2024-05-09T19:17:13.796Z,14.02
2024-05-09T19:19:27.786Z,13.90
2024-05-09T19:21:42.860Z,13.79
2024-05-09T19:23:55.665Z,13.67
2024-05-09T19:26:08.656Z,13.55
2024-05-09T19:28:21.214Z,13.44
2024-05-09T19:30:39.349Z,13.36
2024-05-09T19:32:56.733Z,13.25
2024-05-09T19:35:09.242Z,13.17
2024-05-09T19:37:21.727Z,13.07
2024-05-09T19:39:34.139Z,12.97
2024-05-09T19:41:46.704Z,12.86
2024-05-09T19:43:59.079Z,12.75
2024-05-09T19:46:11.991Z,12.66
2024-05-09T19:48:24.661Z,12.57
2024-05-09T19:50:42.523Z,12.48
2024-05-09T19:52:57.968Z,12.36
2024-05-09T19:55:10.563Z,12.28
2024-05-09T19:57:23.041Z,12.21
2024-05-09T19:59:35.566Z,12.15
2024-05-09T20:01:48.424Z,12.09
2024-05-09T20:04:01.167Z,12.04
2024-05-09T20:06:13.852Z,11.97
2024-05-09T20:08:26.332Z,11.92
2024-05-09T20:10:39.050Z,11.87
2024-05-09T20:12:51.660Z,11.83
2024-05-09T20:15:04.526Z,11.77
2024-05-09T20:17:16.994Z,11.70
2024-05-09T20:19:29.442Z,11.63
2024-05-09T20:21:42.896Z,11.57
2024-05-09T20:23:55.396Z,11.51
2024-05-09T20:26:08.785Z,11.45
2024-05-09T20:28:21.190Z,11.38
2024-05-09T20:30:35.298Z,11.31
2024-05-09T20:32:48.416Z,11.24
2024-05-09T20:35:00.855Z,11.18
2024-05-09T20:37:13.555Z,11.13
2024-05-09T20:39:26.389Z,11.07
2024-05-09T20:41:44.955Z,11.02
2024-05-09T20:44:00.268Z,10.94
2024-05-09T20:46:15.167Z,10.87
2024-05-09T20:48:27.811Z,10.79
2024-05-09T20:50:42.372Z,10.72
2024-05-09T20:52:55.716Z,10.65
2024-05-09T20:55:08.104Z,10.60
2024-05-09T20:57:20.521Z,10.56
2024-05-09T20:59:32.895Z,10.54
2024-05-09T21:01:48.822Z,10.50
2024-05-09T21:04:02.521Z,10.45
2024-05-09T21:06:15.236Z,10.40
2024-05-09T21:08:27.713Z,10.36
2024-05-09T21:10:40.214Z,10.33
2024-05-09T21:12:52.760Z,10.29
2024-05-09T21:15:05.507Z,10.24
2024-05-09T21:17:18.084Z,10.15
2024-05-09T21:19:30.477Z,10.08
2024-05-09T21:21:43.094Z,10.04
2024-05-09T21:23:55.478Z,9.99
2024-05-09T21:26:07.902Z,9.93
2024-05-09T21:28:20.426Z,9.88
2024-05-09T21:30:40.858Z,9.84
2024-05-09T21:32:55.470Z,9.76
2024-05-09T21:35:07.958Z,9.72
2024-05-09T21:37:20.388Z,9.67
2024-05-09T21:39:32.904Z,9.64
2024-05-09T21:41:45.301Z,9.60
2024-05-09T21:43:57.684Z,9.54
2024-05-09T21:46:10.072Z,9.50
2024-05-09T21:48:22.965Z,9.43
2024-05-09T21:50:40.028Z,9.35
2024-05-09T21:52:55.611Z,9.26
2024-05-09T21:55:08.253Z,9.21
2024-05-09T21:57:21.664Z,9.16
2024-05-09T21:59:34.248Z,9.11
2024-05-09T22:01:47.023Z,9.06
2024-05-09T22:03:59.638Z,9.00
2024-05-09T22:06:12.577Z,8.96
2024-05-09T22:08:25.038Z,8.93
2024-05-09T22:10:37.716Z,8.89
2024-05-09T22:12:50.196Z,8.85
2024-05-09T22:15:02.832Z,8.82
2024-05-09T22:17:15.361Z,8.78
2024-05-09T22:19:29.455Z,8.74
2024-05-09T22:21:41.953Z,8.69
2024-05-09T22:23:54.415Z,8.66
2024-05-09T22:26:06.796Z,8.64
2024-05-09T22:28:19.377Z,8.62
2024-05-09T22:30:37.022Z,8.59
2024-05-09T22:32:51.991Z,8.54
2024-05-09T22:35:07.447Z,8.50
2024-05-09T22:37:19.823Z,8.44
2024-05-09T22:39:32.301Z,8.41
2024-05-09T22:41:45.355Z,8.37
2024-05-09T22:43:58.382Z,8.36
2024-05-09T22:46:10.899Z,8.33
2024-05-09T22:48:24.876Z,8.30
2024-05-09T22:50:37.980Z,8.27
2024-05-09T22:52:50.369Z,8.23
2024-05-09T22:55:03.723Z,8.21
2024-05-09T22:57:16.238Z,8.17
2024-05-09T22:59:31.776Z,8.12
2024-05-09T23:01:44.343Z,8.07
2024-05-09T23:03:57.322Z,8.04
2024-05-09T23:06:09.949Z,8.02
2024-05-09T23:08:22.374Z,7.98
2024-05-09T23:10:37.556Z,7.91
2024-05-09T23:12:50.999Z,7.88
2024-05-09T23:15:03.653Z,7.85
2024-05-09T23:17:16.067Z,7.84
2024-05-09T23:19:28.608Z,7.82
2024-05-09T23:21:41.330Z,7.82
2024-05-09T23:23:54.257Z,7.81
2024-05-09T23:26:07.095Z,7.78
2024-05-09T23:28:19.575Z,7.76
2024-05-09T23:30:37.225Z,7.73
2024-05-09T23:32:52.539Z,7.68
2024-05-09T23:35:05.528Z,7.64
2024-05-09T23:37:18.086Z,7.59
2024-05-09T23:39:30.548Z,7.55
2024-05-09T23:41:42.986Z,7.53
2024-05-09T23:43:55.430Z,7.52
2024-05-09T23:46:08.483Z,7.51
2024-05-09T23:48:20.972Z,7.48
2024-05-09T23:50:36.770Z,7.45
2024-05-09T23:52:50.953Z,7.39
2024-05-09T23:55:03.819Z,7.31
2024-05-09T23:57:16.265Z,7.29
2024-05-09T23:59:28.640Z,7.26
